Time;durP1;ratioP1;P1;durP2;ratioP2;P2;SDS_P1;SDS_P2;PMS_P1;PMS_P2;Temp;Humidity;BMP_temperature;BMP_pressure;BME280_temperature;BME280_humidity;BME280_pressure;Samples;Min_cycle;Max_cycle;Signal;HPM_P1;HPM_P2
2022/07/01 00:00:50;;;;;;;9.63;5.70;;;;;;;;;;4994745;28;20053;-60
2022/07/01 00:03:16;;;;;;;10.13;6.15;;;;;;;;;;4994835;28;20109;-61
2022/07/01 00:05:42;;;;;;;9.88;5.82;;;;;;;;;;4994936;28;20032;-62
2022/07/01 00:08:08;;;;;;;9.18;5.40;;;;;;;;;;4994200;28;20390;-59
2022/07/01 00:10:37;;;;;;;9.80;5.80;;;;;;;;;;4995421;28;20022;-59
2022/07/01 00:13:03;;;;;;;9.43;5.60;;;;;;;;;;4978243;28;20026;-61
2022/07/01 00:15:29;;;;;;;9.63;5.70;;;;;;;;;;4995596;28;20097;-61
2022/07/01 00:17:55;;;;;;;10.60;6.43;;;;;;;;;;4994979;28;20062;-59
2022/07/01 00:20:21;;;;;;;9.60;5.70;;;;;;;;;;4995578;28;20057;-62
2022/07/01 00:22:47;;;;;;;10.25;6.00;;;;;;;;;;4995286;28;20027;-62
2022/07/01 00:25:13;;;;;;;9.98;5.93;;;;;;;;;;4995378;28;20018;-58
2022/07/01 00:27:40;;;;;;;9.63;5.70;;;;;;;;;;4976939;28;20026;-62
2022/07/01 00:30:06;;;;;;;9.93;5.82;;;;;;;;;;4995477;28;20107;-62
2022/07/01 00:32:32;;;;;;;9.70;5.70;;;;;;;;;;4994707;28;20034;-62
2022/07/01 00:34:58;;;;;;;11.07;6.75;;;;;;;;;;4995139;28;20033;-63
2022/07/01 00:37:24;;;;;;;10.48;6.20;;;;;;;;;;4994208;28;20053;-62
2022/07/01 00:39:50;;;;;;;10.45;6.10;;;;;;;;;;4995008;28;20034;-61
2022/07/01 00:42:16;;;;;;;10.70;6.47;;;;;;;;;;4977170;28;20657;-62
2022/07/01 00:44:42;;;;;;;10.40;6.30;;;;;;;;;;4977509;28;20022;-62
2022/07/01 00:47:10;;;;;;;12.23;6.40;;;;;;;;;;4976961;28;20032;-54
2022/07/01 00:49:37;;;;;;;11.75;7.13;;;;;;;;;;4977088;28;20022;-63
2022/07/01 00:52:03;;;;;;;10.30;6.15;;;;;;;;;;4994614;28;20417;-62
2022/07/01 00:54:31;;;;;;;10.20;6.07;;;;;;;;;;4994724;28;20126;-62
2022/07/01 00:56:57;;;;;;;9.73;5.75;;;;;;;;;;4994649;28;20230;-62
2022/07/01 00:59:24;;;;;;;11.43;6.57;;;;;;;;;;4976802;28;20133;-60
2022/07/01 01:01:50;;;;;;;9.98;5.88;;;;;;;;;;4994626;28;20109;-59
2022/07/01 01:04:16;;;;;;;11.10;7.28;;;;;;;;;;4977237;28;20204;-62
2022/07/01 01:06:42;;;;;;;10.55;6.40;;;;;;;;;;4977264;28;20036;-62
2022/07/01 01:09:08;;;;;;;10.32;6.10;;;;;;;;;;4993976;28;20372;-63
2022/07/01 01:11:34;;;;;;;10.70;6.50;;;;;;;;;;4977014;28;20026;-60
2022/07/01 01:14:00;;;;;;;9.93;5.90;;;;;;;;;;4977133;28;20080;-62
2022/07/01 01:16:26;;;;;;;13.02;6.80;;;;;;;;;;4994630;28;20113;-62
2022/07/01 01:18:52;;;;;;;10.10;5.90;;;;;;;;;;4993487;28;20493;-61
2022/07/01 01:21:18;;;;;;;12.57;7.03;;;;;;;;;;4994338;28;20027;-63
2022/07/01 01:23:45;;;;;;;11.30;7.07;;;;;;;;;;4994157;28;20084;-61
2022/07/01 01:26:15;;;;;;;10.45;6.20;;;;;;;;;;4994324;28;20029;-61
2022/07/01 01:28:42;;;;;;;10.50;6.30;;;;;;;;;;4993436;28;20058;-61
2022/07/01 01:31:08;;;;;;;10.80;6.30;;;;;;;;;;4993972;28;20394;-62
2022/07/01 01:33:34;;;;;;;10.98;6.50;;;;;;;;;;4994047;28;20037;-61
2022/07/01 01:35:59;;;;;;;11.18;6.60;;;;;;;;;;4994213;28;20102;-63
2022/07/01 01:38:26;;;;;;;11.05;6.65;;;;;;;;;;4976007;28;20482;-61
2022/07/01 01:40:52;;;;;;;15.70;7.47;;;;;;;;;;4994260;28;20030;-61
2022/07/01 01:43:18;;;;;;;10.57;6.28;;;;;;;;;;4993295;28;20037;-62
2022/07/01 01:45:44;;;;;;;12.88;8.00;;;;;;;;;;4994346;28;20019;-61
2022/07/01 01:48:10;;;;;;;10.05;6.00;;;;;;;;;;4993198;28;20383;-61
2022/07/01 01:50:36;;;;;;;20.13;7.88;;;;;;;;;;4976394;28;20076;-61
2022/07/01 01:53:02;;;;;;;10.82;6.47;;;;;;;;;;4993695;28;20042;-61
2022/07/01 01:55:31;;;;;;;10.30;6.20;;;;;;;;;;4976275;28;20029;-62
2022/07/01 01:57:56;;;;;;;;;;;;;;;;;;4993368;28;20026;-62
2022/07/01 02:00:23;;;;;;;9.90;5.90;;;;;;;;;;4993739;28;19913;-62
2022/07/01 02:02:49;;;;;;;10.88;6.60;;;;;;;;;;4993339;28;20022;-62
2022/07/01 02:05:15;;;;;;;10.80;6.43;;;;;;;;;;4993291;28;20033;-63
2022/07/01 02:07:42;;;;;;;10.20;6.07;;;;;;;;;;4992846;28;20018;-63
2022/07/01 02:10:08;;;;;;;10.00;6.07;;;;;;;;;;4993072;28;20027;-62
2022/07/01 02:12:34;;;;;;;10.00;6.13;;;;;;;;;;4993152;28;20497;-62
2022/07/01 02:15:00;;;;;;;11.07;6.60;;;;;;;;;;4993036;28;20033;-62
2022/07/01 02:17:26;;;;;;;10.23;6.00;;;;;;;;;;4974815;28;20445;-63
2022/07/01 02:19:52;;;;;;;9.95;5.90;;;;;;;;;;4975836;28;20081;-62
2022/07/01 02:22:18;;;;;;;10.48;6.10;;;;;;;;;;4975639;28;20399;-61
2022/07/01 02:24:44;;;;;;;9.95;5.85;;;;;;;;;;4976483;28;20023;-61
2022/07/01 02:27:12;;;;;;;10.43;6.35;;;;;;;;;;4992910;28;20149;-60
2022/07/01 02:29:38;;;;;;;9.80;5.80;;;;;;;;;;4993113;28;20022;-61
2022/07/01 02:32:04;;;;;;;10.80;6.43;;;;;;;;;;4975507;28;20046;-62
2022/07/01 02:34:30;;;;;;;10.48;6.20;;;;;;;;;;4975641;28;20084;-61
2022/07/01 02:36:56;;;;;;;10.50;6.32;;;;;;;;;;4992973;28;20176;-62
2022/07/01 02:39:22;;;;;;;10.10;5.90;;;;;;;;;;4992547;28;20029;-62
2022/07/01 02:44:36;;;;;;;10.00;6.07;;;;;;;;;;4992832;28;20057;-60
2022/07/01 02:47:02;;;;;;;10.70;6.68;;;;;;;;;;4992767;28;20018;-61
2022/07/01 02:49:28;;;;;;;10.10;6.10;;;;;;;;;;4992247;28;20027;-62
2022/07/01 02:51:54;;;;;;;11.15;7.07;;;;;;;;;;4992903;28;20034;-62
2022/07/01 02:54:20;;;;;;;10.52;6.38;;;;;;;;;;4992384;28;20125;-62
2022/07/01 02:56:46;;;;;;;9.90;6.00;;;;;;;;;;4992737;28;20022;-62
2022/07/01 02:59:12;;;;;;;10.10;6.30;;;;;;;;;;4974443;28;20459;-62
2022/07/01 03:01:38;;;;;;;10.10;5.90;;;;;;;;;;4992674;28;20082;-63
2022/07/01 03:04:04;;;;;;;11.15;6.97;;;;;;;;;;4992292;28;20050;-62
2022/07/01 03:06:30;;;;;;;10.68;6.50;;;;;;;;;;4975119;28;20029;-63
2022/07/01 03:08:57;;;;;;;10.52;6.35;;;;;;;;;;4974282;28;20027;-62
2022/07/01 03:11:24;;;;;;;10.10;6.10;;;;;;;;;;4975179;28;20380;-63
2022/07/01 03:13:50;;;;;;;10.43;6.38;;;;;;;;;;4992625;28;20036;-63
2022/07/01 03:16:16;;;;;;;9.95;5.85;;;;;;;;;;4992468;28;20034;-64
2022/07/01 03:18:42;;;;;;;13.25;7.97;;;;;;;;;;4974275;28;20181;-62
2022/07/01 03:21:08;;;;;;;13.13;7.72;;;;;;;;;;4992507;28;20109;-63
2022/07/01 03:23:34;;;;;;;10.77;6.60;;;;;;;;;;4992400;28;20030;-63
2022/07/01 03:26:00;;;;;;;10.88;6.72;;;;;;;;;;4975115;28;20047;-62
2022/07/01 03:28:26;;;;;;;10.70;6.35;;;;;;;;;;4991834;28;20102;-62
2022/07/01 03:30:52;;;;;;;9.73;5.72;;;;;;;;;;4992376;28;20019;-62
2022/07/01 03:33:18;;;;;;;11.15;6.90;;;;;;;;;;4992393;28;20050;-63
2022/07/01 03:35:45;;;;;;;10.50;6.20;;;;;;;;;;4992508;28;20038;-62
2022/07/01 03:38:11;;;;;;;10.88;6.40;;;;;;;;;;4991346;28;20031;-62
2022/07/01 03:40:37;;;;;;;11.77;7.10;;;;;;;;;;4992305;28;20034;-63
2022/07/01 03:43:04;;;;;;;11.35;6.72;;;;;;;;;;4992135;28;20483;-64
2022/07/01 03:45:30;;;;;;;12.50;7.55;;;;;;;;;;4974812;28;20030;-63
2022/07/01 03:47:56;;;;;;;12.48;7.57;;;;;;;;;;4991382;28;20049;-63
2022/07/01 03:50:22;;;;;;;13.27;8.50;;;;;;;;;;4992150;28;20018;-63
2022/07/01 03:52:48;;;;;;;12.93;8.25;;;;;;;;;;4974486;28;20045;-61
2022/07/01 03:55:16;;;;;;;12.82;7.57;;;;;;;;;;4992203;28;20061;-63
2022/07/01 03:57:42;;;;;;;12.65;7.82;;;;;;;;;;4991251;28;20023;-62
2022/07/01 04:00:08;;;;;;;15.98;8.93;;;;;;;;;;4974735;28;20463;-63
2022/07/01 04:02:34;;;;;;;13.95;8.95;;;;;;;;;;4992252;28;20081;-63
2022/07/01 04:05:00;;;;;;;12.73;7.82;;;;;;;;;;4974720;28;20023;-62
2022/07/01 04:07:27;;;;;;;13.60;9.10;;;;;;;;;;4993765;28;20026;-62
2022/07/01 04:09:53;;;;;;;14.93;9.73;;;;;;;;;;4995607;28;20038;-60
2022/07/01 04:12:19;;;;;;;13.63;8.52;;;;;;;;;;4978127;28;20026;-62
2022/07/01 04:14:45;;;;;;;13.70;8.70;;;;;;;;;;4995399;28;20401;-60
2022/07/01 04:17:12;;;;;;;13.77;8.98;;;;;;;;;;4995199;28;20450;-60
2022/07/01 04:19:38;;;;;;;15.95;10.85;;;;;;;;;;4995646;28;20110;-62
2022/07/01 04:24:48;;;;;;;14.10;10.13;;;;;;;;;;4995651;28;20123;-62
2022/07/01 04:27:14;;;;;;;22.27;11.82;;;;;;;;;;4994758;28;20115;-62
2022/07/01 04:29:41;;;;;;;15.00;12.95;;;;;;;;;;4995480;28;20025;-62
2022/07/01 04:32:07;;;;;;;17.67;14.88;;;;;;;;;;4995507;28;20030;-63
2022/07/01 04:34:33;;;;;;;18.08;15.75;;;;;;;;;;4995541;28;20113;-63
2022/07/01 04:36:59;;;;;;;16.67;14.98;;;;;;;;;;4995109;28;20506;-62
2022/07/01 04:39:25;;;;;;;16.60;14.90;;;;;;;;;;4994435;28;20105;-63
2022/07/01 04:42:00;;;;;;;21.33;15.18;;;;;;;;;;4994900;28;20049;-63
2022/07/01 04:44:30;;;;;;;16.13;14.43;;;;;;;;;;4994912;28;20166;-62
2022/07/01 04:46:57;;;;;;;16.10;14.40;;;;;;;;;;4977634;28;20030;-62
2022/07/01 04:49:23;;;;;;;16.85;15.05;;;;;;;;;;4994402;28;20140;-62
2022/07/01 04:51:49;;;;;;;17.85;14.90;;;;;;;;;;4994918;28;20053;-60
2022/07/01 04:54:15;;;;;;;15.25;13.45;;;;;;;;;;4994579;28;20026;-61
2022/07/01 04:56:41;;;;;;;16.67;14.98;;;;;;;;;;4994772;28;20113;-63
2022/07/01 04:59:07;;;;;;;16.45;14.75;;;;;;;;;;4994049;28;20033;-63
2022/07/01 05:01:34;;;;;;;16.15;14.45;;;;;;;;;;4977060;28;20034;-63
2022/07/01 05:04:00;;;;;;;15.70;13.88;;;;;;;;;;4994407;28;20022;-61
2022/07/01 05:06:26;;;;;;;16.85;14.18;;;;;;;;;;4976959;28;20019;-61
2022/07/01 05:08:52;;;;;;;14.80;12.60;;;;;;;;;;4993527;28;20113;-62
2022/07/01 05:11:18;;;;;;;14.85;12.50;;;;;;;;;;4994335;28;20026;-63
2022/07/01 05:13:44;;;;;;;14.70;12.15;;;;;;;;;;4976840;28;20466;-62
2022/07/01 05:16:10;;;;;;;15.85;12.82;;;;;;;;;;4994138;28;20113;-63
2022/07/01 05:24:06;;;;;;;14.60;11.45;;;;;;;;;;4993952;28;20469;-61
2022/07/01 05:26:32;;;;;;;14.43;10.98;;;;;;;;;;4976508;28;20137;-63
2022/07/01 05:28:58;;;;;;;35.17;26.60;;;;;;;;;;4993251;28;20022;-63
2022/07/01 05:31:24;;;;;;;36.58;27.83;;;;;;;;;;4994040;28;20026;-63
2022/07/01 05:33:50;;;;;;;36.45;26.33;;;;;;;;;;4993711;28;20081;-63
2022/07/01 05:36:16;;;;;;;32.85;25.75;;;;;;;;;;4994237;28;20030;-63
2022/07/01 05:38:42;;;;;;;31.42;24.92;;;;;;;;;;4993429;28;20050;-62
2022/07/01 05:41:08;;;;;;;32.15;24.77;;;;;;;;;;4993866;28;20105;-63
2022/07/01 05:43:35;;;;;;;32.33;25.10;;;;;;;;;;4975801;28;20397;-62
2022/07/01 05:46:01;;;;;;;32.45;24.75;;;;;;;;;;4993605;28;20030;-62
2022/07/01 05:48:27;;;;;;;32.22;24.38;;;;;;;;;;4975404;28;20034;-60
2022/07/01 05:50:53;;;;;;;30.50;22.58;;;;;;;;;;4993703;28;20117;-63
2022/07/01 05:53:19;;;;;;;32.70;24.58;;;;;;;;;;5028641;23;20134;-63
2022/07/01 05:55:45;;;;;;;34.97;23.98;;;;;;;;;;5031517;28;20029;-62
2022/07/01 05:58:12;;;;;;;30.02;22.88;;;;;;;;;;5030978;28;20120;-64
2022/07/01 06:00:41;;;;;;;32.08;21.02;;;;;;;;;;5031682;28;20072;-66
2022/07/01 06:03:07;;;;;;;33.67;23.73;;;;;;;;;;5013767;28;20497;-63
2022/07/01 06:05:33;;;;;;;32.03;22.00;;;;;;;;;;5031651;28;20030;-63
2022/07/01 06:07:59;;;;;;;29.85;22.23;;;;;;;;;;5030695;28;20021;-64
2022/07/01 06:10:25;;;;;;;32.38;23.23;;;;;;;;;;5031474;28;20025;-64
2022/07/01 06:12:51;;;;;;;32.95;23.63;;;;;;;;;;5031382;28;20465;-63
2022/07/01 06:15:17;;;;;;;30.52;22.33;;;;;;;;;;5013775;28;20021;-63
2022/07/01 06:17:43;;;;;;;28.98;21.27;;;;;;;;;;5030708;28;20704;-64
2022/07/01 06:20:09;;;;;;;30.20;20.90;;;;;;;;;;5031404;28;20084;-65
2022/07/01 06:22:35;;;;;;;30.20;20.27;;;;;;;;;;5031132;28;20029;-65
2022/07/01 06:25:02;;;;;;;29.83;20.20;;;;;;;;;;5031342;28;20478;-64
2022/07/01 06:27:28;;;;;;;29.02;20.02;;;;;;;;;;5030294;28;20057;-65
2022/07/01 06:29:54;;;;;;;27.02;20.17;;;;;;;;;;5012856;28;20069;-64
2022/07/01 06:32:20;;;;;;;28.20;19.25;;;;;;;;;;5030563;28;20096;-65
2022/07/01 06:34:46;;;;;;;28.60;19.85;;;;;;;;;;5030904;28;20025;-64
2022/07/01 06:37:12;;;;;;;26.88;17.95;;;;;;;;;;5030393;28;20048;-64
2022/07/01 06:39:38;;;;;;;25.35;17.90;;;;;;;;;;5030567;28;20411;-64
2022/07/01 06:42:05;;;;;;;28.85;18.17;;;;;;;;;;5030543;28;20120;-64
2022/07/01 06:44:31;;;;;;;27.25;18.27;;;;;;;;;;5030292;28;20040;-64
2022/07/01 06:46:57;;;;;;;25.42;17.83;;;;;;;;;;5030489;28;20473;-64
2022/07/01 06:49:23;;;;;;;28.48;18.80;;;;;;;;;;5030049;28;20026;-64
2022/07/01 06:51:49;;;;;;;27.63;18.02;;;;;;;;;;5030673;28;20091;-64
2022/07/01 06:54:17;;;;;;;27.73;18.58;;;;;;;;;;5030307;28;20037;-63
2022/07/01 06:56:43;;;;;;;27.00;18.25;;;;;;;;;;5030345;28;20094;-64
2022/07/01 06:59:09;;;;;;;27.00;19.70;;;;;;;;;;5029500;28;20457;-63
2022/07/01 07:01:35;;;;;;;26.83;18.75;;;;;;;;;;5030097;28;20056;-64
2022/07/01 07:04:01;;;;;;;33.45;18.10;;;;;;;;;;5012557;28;20124;-64
2022/07/01 07:06:28;;;;;;;27.75;18.58;;;;;;;;;;5030419;28;20128;-65
2022/07/01 07:08:54;;;;;;;25.45;19.08;;;;;;;;;;5029506;28;20520;-65
2022/07/01 07:11:20;;;;;;;33.95;19.10;;;;;;;;;;5030106;28;20057;-66
2022/07/01 07:13:46;;;;;;;25.63;19.10;;;;;;;;;;5012679;28;20028;-65
2022/07/01 07:16:12;;;;;;;26.33;18.02;;;;;;;;;;5030226;28;20045;-65
2022/07/01 07:18:38;;;;;;;28.15;18.92;;;;;;;;;;5029812;28;20415;-65
2022/07/01 07:21:05;;;;;;;26.75;18.83;;;;;;;;;;5030201;28;20109;-65
2022/07/01 07:23:31;;;;;;;25.13;17.85;;;;;;;;;;5030351;28;20101;-64
2022/07/01 07:25:57;;;;;;;26.42;17.33;;;;;;;;;;5030231;28;20409;-63
2022/07/01 07:28:23;;;;;;;28.52;19.17;;;;;;;;;;5029351;28;20037;-63
2022/07/01 07:30:49;;;;;;;26.50;17.90;;;;;;;;;;5030379;28;20018;-66
2022/07/01 07:33:15;;;;;;;26.42;17.10;;;;;;;;;;5029781;28;20029;-64
2022/07/01 07:35:41;;;;;;;25.33;18.25;;;;;;;;;;5030235;28;20048;-64
2022/07/01 07:38:07;;;;;;;23.58;16.80;;;;;;;;;;5029336;28;20026;-64
2022/07/01 07:40:34;;;;;;;24.05;17.25;;;;;;;;;;5029944;28;20032;-64
2022/07/01 07:43:00;;;;;;;25.23;17.63;;;;;;;;;;5033403;28;20109;-65
2022/07/01 07:45:26;;;;;;;22.95;15.73;;;;;;;;;;5033867;28;20460;-64
2022/07/01 07:47:54;;;;;;;22.60;16.48;;;;;;;;;;5033031;28;20018;-65
2022/07/01 07:50:21;;;;;;;27.25;17.98;;;;;;;;;;5033793;28;20545;-63
2022/07/01 07:52:47;;;;;;;25.48;15.80;;;;;;;;;;5033411;28;20547;-63
2022/07/01 07:55:13;;;;;;;25.73;17.23;;;;;;;;;;5015860;28;20025;-62
2022/07/01 07:57:40;;;;;;;24.80;17.77;;;;;;;;;;5032583;28;20026;-63
2022/07/01 08:00:08;;;;;;;26.50;17.50;;;;;;;;;;5015895;28;20031;-63
2022/07/01 08:02:34;;;;;;;25.60;17.27;;;;;;;;;;5033479;28;20028;-62
2022/07/01 08:05:00;;;;;;;26.77;17.08;;;;;;;;;;5033259;28;20389;-63
2022/07/01 08:07:26;;;;;;;23.48;16.77;;;;;;;;;;5032908;28;20113;-63
2022/07/01 08:09:52;;;;;;;25.88;17.08;;;;;;;;;;5015753;28;20022;-61
2022/07/01 08:12:18;;;;;;;23.30;15.45;;;;;;;;;;5021471;28;20041;-61
2022/07/01 08:14:44;;;;;;;23.58;16.38;;;;;;;;;;5013338;28;20041;-62
2022/07/01 08:17:11;;;;;;;23.33;15.45;;;;;;;;;;5012823;28;20025;-61
2022/07/01 08:19:37;;;;;;;22.23;15.32;;;;;;;;;;5013743;28;20080;-62
2022/07/01 08:22:03;;;;;;;23.52;15.68;;;;;;;;;;5013243;28;20405;-62
2022/07/01 08:24:29;;;;;;;20.88;14.82;;;;;;;;;;5012988;28;20107;-62
2022/07/01 08:26:55;;;;;;;20.48;14.52;;;;;;;;;;5013278;28;20021;-57
2022/07/01 08:29:21;;;;;;;20.40;14.23;;;;;;;;;;5012961;28;20021;-62
2022/07/01 08:31:47;;;;;;;22.38;14.43;;;;;;;;;;5013091;28;20045;-62
2022/07/01 08:34:13;;;;;;;21.40;14.60;;;;;;;;;;5013357;28;20022;-62
2022/07/01 08:36:39;;;;;;;20.48;13.70;;;;;;;;;;5013114;28;20030;-62
2022/07/01 08:39:05;;;;;;;21.58;13.10;;;;;;;;;;4994793;28;20032;-63
2022/07/01 08:41:31;;;;;;;21.75;14.07;;;;;;;;;;5013039;28;20648;-62
2022/07/01 08:43:57;;;;;;;21.98;12.98;;;;;;;;;;5012825;28;20034;-62
2022/07/01 08:46:23;;;;;;;20.25;13.20;;;;;;;;;;5012779;28;20097;-62
2022/07/01 08:48:49;;;;;;;25.65;12.65;;;;;;;;;;5011944;28;20430;-62
2022/07/01 08:51:15;;;;;;;19.67;13.30;;;;;;;;;;5012852;28;20026;-63
2022/07/01 08:53:41;;;;;;;20.08;11.88;;;;;;;;;;4994712;28;20038;-62
2022/07/01 08:58:52;;;;;;;18.23;12.57;;;;;;;;;;5012120;28;20528;-61
2022/07/01 09:01:22;;;;;;;19.88;11.90;;;;;;;;;;5012924;28;20448;-62
2022/07/01 09:03:49;;;;;;;19.05;11.32;;;;;;;;;;5012742;28;20437;-60
2022/07/01 09:06:18;;;;;;;21.42;11.30;;;;;;;;;;5012701;28;20422;-60
2022/07/01 09:08:45;;;;;;;16.52;10.65;;;;;;;;;;5022103;28;20021;-61
2022/07/01 09:11:12;;;;;;;17.77;11.10;;;;;;;;;;5032362;28;20029;-60
2022/07/01 09:13:38;;;;;;;16.48;10.23;;;;;;;;;;5014663;28;20034;-62
2022/07/01 09:16:11;;;;;;;15.30;10.63;;;;;;;;;;4997114;28;20111;-58
2022/07/01 09:18:37;;;;;;;16.40;10.70;;;;;;;;;;5031690;28;20059;-59
2022/07/01 09:21:07;;;;;;;17.00;10.90;;;;;;;;;;5032071;28;20120;-61
2022/07/01 09:23:33;;;;;;;17.90;11.55;;;;;;;;;;5032271;28;20082;-61
2022/07/01 09:25:59;;;;;;;18.45;10.65;;;;;;;;;;5017808;28;20117;-61
2022/07/01 09:28:26;;;;;;;16.10;10.57;;;;;;;;;;5011457;28;20050;-61
2022/07/01 09:30:59;;;;;;;17.90;10.80;;;;;;;;;;4994871;28;20413;-61
2022/07/01 09:33:26;;;;;;;16.48;10.90;;;;;;;;;;5012345;28;20025;-60
2022/07/01 09:35:53;;;;;;;16.70;10.95;;;;;;;;;;5012126;28;20030;-60
2022/07/01 09:38:20;;;;;;;17.90;11.38;;;;;;;;;;5011197;28;20029;-58
2022/07/01 09:40:55;;;;;;;17.58;11.20;;;;;;;;;;5011970;28;20128;-61
2022/07/01 09:43:24;;;;;;;17.67;11.20;;;;;;;;;;5028309;28;20071;-59
2022/07/01 09:45:50;;;;;;;17.67;10.93;;;;;;;;;;5031561;28;20018;-60
2022/07/01 09:48:16;;;;;;;17.55;10.63;;;;;;;;;;5030858;28;20120;-60
2022/07/01 09:50:43;;;;;;;18.55;10.68;;;;;;;;;;5031953;28;20080;-59
2022/07/01 09:53:10;;;;;;;17.75;10.93;;;;;;;;;;5031450;28;20084;-55
2022/07/01 09:55:36;;;;;;;17.30;10.00;;;;;;;;;;5031106;28;20485;-60
2022/07/01 09:58:03;;;;;;;16.50;9.77;;;;;;;;;;5014389;28;20096;-60
2022/07/01 10:00:31;;;;;;;17.52;10.23;;;;;;;;;;5031430;28;20025;-58
2022/07/01 10:02:57;;;;;;;;;;;;;;;;;;5025142;28;20247;-60
2022/07/01 10:05:24;;;;;;;16.77;9.73;;;;;;;;;;5011113;28;19979;-65
2022/07/01 10:07:54;;;;;;;18.55;9.93;;;;;;;;;;4993103;28;20057;-60
2022/07/01 10:10:39;;;;;;;17.92;11.00;;;;;;;;;;5027782;28;20103;-62
2022/07/01 10:13:06;;;;;;;17.92;9.88;;;;;;;;;;5030777;28;20490;-62
2022/07/01 10:15:32;;;;;;;16.58;9.63;;;;;;;;;;5031008;28;20208;-60
2022/07/01 10:17:58;;;;;;;17.40;9.70;;;;;;;;;;5030386;28;20025;-61
2022/07/01 10:20:26;;;;;;;16.35;9.80;;;;;;;;;;5030910;28;20028;-61
2022/07/01 10:23:00;;;;;;;15.60;9.90;;;;;;;;;;5030488;28;20462;-61
2022/07/01 10:25:32;;;;;;;17.60;10.40;;;;;;;;;;5031152;28;20061;-62
2022/07/01 10:28:17;;;;;;;18.05;10.50;;;;;;;;;;5030072;28;20022;-62
2022/07/01 10:30:52;;;;;;;14.98;10.02;;;;;;;;;;5030588;28;20105;-62
2022/07/01 10:33:36;;;;;;;15.63;10.10;;;;;;;;;;5030472;28;20025;-65
2022/07/01 10:36:09;;;;;;;17.50;10.98;;;;;;;;;;5011389;28;20026;-61
2022/07/01 10:38:35;;;;;;;16.77;9.98;;;;;;;;;;5029677;28;20436;-61
2022/07/01 10:41:10;;;;;;;16.63;10.82;;;;;;;;;;5030297;28;20112;-61
2022/07/01 10:43:37;;;;;;;15.77;10.18;;;;;;;;;;5030023;28;20032;-60
2022/07/01 10:46:04;;;;;;;15.93;10.30;;;;;;;;;;5012975;28;20186;-55
2022/07/01 10:48:34;;;;;;;17.05;10.57;;;;;;;;;;5029930;28;20161;-58
2022/07/01 10:51:00;;;;;;;16.77;10.32;;;;;;;;;;5031084;28;20025;-58
2022/07/01 10:53:31;;;;;;;15.50;10.07;;;;;;;;;;5030479;28;20036;-56
2022/07/01 10:55:59;;;;;;;16.70;10.35;;;;;;;;;;5012862;28;20079;-55
2022/07/01 10:58:38;;;;;;;16.77;10.38;;;;;;;;;;5030175;28;20030;-54
2022/07/01 11:01:04;;;;;;;16.38;10.27;;;;;;;;;;5030327;28;20025;-58
2022/07/01 11:03:34;;;;;;;17.27;10.15;;;;;;;;;;5030412;28;20182;-56
2022/07/01 11:06:00;;;;;;;15.55;10.27;;;;;;;;;;5030640;28;20025;-59
2022/07/01 11:08:26;;;;;;;16.38;9.88;;;;;;;;;;5029791;28;20588;-62
2022/07/01 11:10:55;;;;;;;17.63;10.00;;;;;;;;;;5029116;28;20486;-61
2022/07/01 11:13:21;;;;;;;;;;;;;;;;;;5030546;28;20034;-60
2022/07/01 11:15:47;;;;;;;16.40;9.65;;;;;;;;;;5030603;28;19905;-62
2022/07/01 11:18:14;;;;;;;15.85;9.70;;;;;;;;;;5033969;28;20112;-59
2022/07/01 11:20:40;;;;;;;17.55;10.02;;;;;;;;;;5034389;28;20037;-62
2022/07/01 11:23:06;;;;;;;14.82;9.45;;;;;;;;;;5033913;28;20104;-62
2022/07/01 11:25:32;;;;;;;14.93;9.70;;;;;;;;;;5034289;28;20530;-62
2022/07/01 11:27:58;;;;;;;16.45;10.35;;;;;;;;;;5033474;28;20022;-61
2022/07/01 11:30:24;;;;;;;16.75;10.00;;;;;;;;;;5033961;28;20044;-62
2022/07/01 11:32:54;;;;;;;17.38;9.90;;;;;;;;;;5034266;28;20029;-62
2022/07/01 11:40:53;;;;;;;17.90;9.80;;;;;;;;;;5033987;28;20048;-61
2022/07/01 11:43:23;;;;;;;15.88;9.90;;;;;;;;;;5033735;28;20447;-62
2022/07/01 11:45:49;;;;;;;15.88;10.05;;;;;;;;;;5034010;28;20025;-62
2022/07/01 11:48:28;;;;;;;14.75;10.02;;;;;;;;;;5032794;28;20097;-62
2022/07/01 11:50:54;;;;;;;16.90;10.02;;;;;;;;;;5033266;28;20025;-62
2022/07/01 11:53:20;;;;;;;15.32;9.82;;;;;;;;;;5049319;23;20040;-64
2022/07/01 11:55:47;;;;;;;16.00;9.35;;;;;;;;;;5032036;28;20038;-65
2022/07/01 11:58:13;;;;;;;18.27;9.60;;;;;;;;;;5030790;28;20021;-64
2022/07/01 12:00:39;;;;;;;16.33;9.23;;;;;;;;;;5047760;28;20026;-66
2022/07/01 12:03:07;;;;;;;16.10;9.82;;;;;;;;;;5048634;28;20097;-66
2022/07/01 12:05:33;;;;;;;16.73;9.02;;;;;;;;;;5020112;28;20021;-63
2022/07/01 12:07:59;;;;;;;15.65;9.70;;;;;;;;;;5016211;28;20033;-65
2022/07/01 12:10:26;;;;;;;15.90;9.77;;;;;;;;;;5034212;28;20024;-63
2022/07/01 12:12:52;;;;;;;15.55;9.60;;;;;;;;;;5034309;28;20440;-64
2022/07/01 12:15:18;;;;;;;15.88;10.20;;;;;;;;;;5034364;28;20038;-64
2022/07/01 12:17:44;;;;;;;17.73;10.25;;;;;;;;;;5015835;28;20021;-64
2022/07/01 12:20:10;;;;;;;18.70;10.77;;;;;;;;;;5034445;28;20104;-62
2022/07/01 12:22:36;;;;;;;15.52;10.05;;;;;;;;;;5034296;28;20033;-64
2022/07/01 12:25:13;;;;;;;14.77;10.20;;;;;;;;;;5016370;28;20140;-64
2022/07/01 12:27:40;;;;;;;16.13;9.85;;;;;;;;;;5032963;28;20101;-64
2022/07/01 12:30:08;;;;;;;15.25;9.95;;;;;;;;;;5034551;28;20490;-64
2022/07/01 12:32:38;;;;;;;14.95;10.10;;;;;;;;;;5034303;28;20034;-64
2022/07/01 12:35:33;;;;;;;16.40;10.40;;;;;;;;;;5016403;28;20108;-62
2022/07/01 12:37:52;;;;;;;16.00;9.77;;;;;;;;;;5033014;28;20108;-64
2022/07/01 12:40:22;;;;;;;15.85;10.63;;;;;;;;;;5016023;28;20068;-63
2022/07/01 12:42:48;;;;;;;16.98;10.30;;;;;;;;;;5034262;28;20108;-65
2022/07/01 12:45:15;;;;;;;15.20;10.20;;;;;;;;;;5033873;28;20053;-64
2022/07/01 12:47:43;;;;;;;15.38;10.00;;;;;;;;;;5015485;28;20491;-64
2022/07/01 12:50:19;;;;;;;15.65;10.10;;;;;;;;;;5040542;28;20059;-64
2022/07/01 12:53:00;;;;;;;14.80;10.02;;;;;;;;;;5053747;28;20116;-65
2022/07/01 12:55:27;;;;;;;16.38;10.38;;;;;;;;;;5035932;28;20025;-65
2022/07/01 12:57:55;;;;;;;15.25;10.50;;;;;;;;;;5052980;28;20031;-64
2022/07/01 13:00:23;;;;;;;16.55;10.65;;;;;;;;;;5054094;28;20072;-64
2022/07/01 13:02:51;;;;;;;14.68;9.98;;;;;;;;;;5053787;28;20028;-64
2022/07/01 13:05:25;;;;;;;14.49;10.16;;;;;;;;;;4961416;28;10000347;-64
2022/07/01 13:07:51;;;;;;;16.70;10.00;;;;;;;;;;5021019;28;20791;-63
2022/07/01 13:10:18;;;;;;;15.30;10.13;;;;;;;;;;5025068;28;20671;-64
2022/07/01 13:12:45;;;;;;;14.80;10.27;;;;;;;;;;5011024;28;20453;-62
2022/07/01 13:15:11;;;;;;;15.10;10.07;;;;;;;;;;5020482;28;20033;-63
2022/07/01 13:17:37;;;;;;;15.70;10.70;;;;;;;;;;5011615;28;20033;-64
2022/07/01 13:20:04;;;;;;;16.08;10.35;;;;;;;;;;5030229;28;20021;-62
2022/07/01 13:22:30;;;;;;;15.15;10.32;;;;;;;;;;5029941;28;20478;-64
2022/07/01 13:24:56;;;;;;;16.30;10.73;;;;;;;;;;5010028;28;20029;-63
2022/07/01 13:27:22;;;;;;;15.90;10.48;;;;;;;;;;5009818;28;20030;-63
2022/07/01 13:29:49;;;;;;;16.52;10.40;;;;;;;;;;4992416;28;20030;-66
2022/07/01 13:32:15;;;;;;;14.60;9.52;;;;;;;;;;4992841;28;20049;-65
2022/07/01 13:34:41;;;;;;;14.98;9.60;;;;;;;;;;4992471;28;20469;-63
2022/07/01 13:37:07;;;;;;;16.20;10.10;;;;;;;;;;5009904;28;20057;-60
2022/07/01 13:39:33;;;;;;;15.07;10.10;;;;;;;;;;5008488;28;20033;-64
2022/07/01 13:41:59;;;;;;;14.63;9.98;;;;;;;;;;5009439;28;20118;-64
2022/07/01 13:44:25;;;;;;;15.05;10.40;;;;;;;;;;5009905;28;20112;-64
2022/07/01 13:46:51;;;;;;;14.57;9.93;;;;;;;;;;5011008;28;20382;-64
2022/07/01 13:49:18;;;;;;;16.42;10.50;;;;;;;;;;5030201;28;20075;-64
2022/07/01 13:51:44;;;;;;;15.90;10.02;;;;;;;;;;5015089;28;20029;-62
2022/07/01 13:54:10;;;;;;;20.20;10.60;;;;;;;;;;5032053;28;20045;-59
2022/07/01 13:56:36;;;;;;;15.25;9.95;;;;;;;;;;5032698;28;20025;-61
2022/07/01 13:59:02;;;;;;;15.93;10.38;;;;;;;;;;5031900;28;20071;-62
2022/07/01 14:01:29;;;;;;;15.95;10.40;;;;;;;;;;5014802;28;20071;-62
2022/07/01 14:03:55;;;;;;;15.80;10.50;;;;;;;;;;5032481;28;20029;-64
2022/07/01 14:06:21;;;;;;;15.05;10.10;;;;;;;;;;5032609;28;20105;-64
2022/07/01 14:08:47;;;;;;;15.85;10.27;;;;;;;;;;5032119;28;20025;-64
2022/07/01 14:11:14;;;;;;;15.07;10.32;;;;;;;;;;5032480;28;20398;-64
2022/07/01 14:13:40;;;;;;;15.18;10.30;;;;;;;;;;5032633;28;20104;-63
2022/07/01 14:16:07;;;;;;;15.95;10.00;;;;;;;;;;5032340;28;20049;-64
2022/07/01 14:18:33;;;;;;;15.43;10.25;;;;;;;;;;5031788;28;20382;-64
2022/07/01 14:21:00;;;;;;;16.92;10.60;;;;;;;;;;5032077;28;20601;-62
2022/07/01 14:23:26;;;;;;;16.40;10.23;;;;;;;;;;5029477;28;20389;-63
2022/07/01 14:25:52;;;;;;;15.35;10.30;;;;;;;;;;5032051;28;20465;-57
2022/07/01 14:28:18;;;;;;;14.70;10.15;;;;;;;;;;5031750;28;20018;-60
2022/07/01 14:30:45;;;;;;;15.85;10.20;;;;;;;;;;5032486;28;20025;-59
2022/07/01 14:33:11;;;;;;;16.38;10.23;;;;;;;;;;5031201;28;20025;-58
2022/07/01 14:35:37;;;;;;;14.60;10.20;;;;;;;;;;5012780;28;20095;-58
2022/07/01 14:38:03;;;;;;;15.32;10.25;;;;;;;;;;5031386;28;20362;-57
2022/07/01 14:40:31;;;;;;;16.80;10.57;;;;;;;;;;5020020;28;20506;-60